Main page
METAR-TAF:

METAR-TAF

Airports :

Srinagar International Airport

Srinagar, India

latitude: 33-59-14N, longitude: 074-46-27E, elevation: 1655 m

METAR: missing

Time: 03:48 (22:18 UTC)

Forecast

The report was made 12 hours and 48 minutes ago, at 09:30 UTC
Forecast valid from 22 at 12 UTC to 22 at 24 UTC
Wind 2 kt from variable directions
Visibility: 1500 m
Broken clouds at a height of 500 ft
Broken clouds at a height of 8000 ft
light rain, mist
Temporary
from 22 at 14 UTC to 22 at 18 UTC
Visibility: 0600 m
snow, fog

TAF: VISR 220930Z 2212/2224 VRB02KT 1500 -RABR BKN005 BKN080 TEMPO 2214/2218 0600 SNFG VV///

Weather observations and forecasts of more than 4000 airports (METAR and TAF reports).

The available stations are represented by yellow and red dots on the map.

Hover mouse over dot to see the name of the station.

Then click to see weather observations and forecasts.

To change the map : click on the green buttons with a black cross to zoom in, on the green button with a dash to zoom out, or on the green arrows for adjacent maps.


METAR-TAF: